Laurel Springs, North Carolina
Current Conditions -  °F | °C
As of 2:35 PM on Tuesday 21 Oct 2014 (Local Time) from KGEV Reporting Station
Overcast Overcast  
Wind Chill: 53°   Ceiling: 3900
Heat Index: 53°   Visibility: 10mi
Dew Point: 38°   Wind: 12mph
Humidity: 58%   Direction: 270°W
Pressure: 29.94"   Gusts: NA
Location:  36.42°N, 81.26°W
Report Text: KGEV 211835Z AUTO 27010KT 10SM SCT031 BKN039 OVC050 12/03 A2994 RMK AO2 T01150034
Loading
Personal Weather Stations






























Interactive Weather Map
Tropical Storm Tracking
New forecast layout! Learn more

10-Day Weather Forecast

Advertisements
Track Severe Weather on mobile